createdAt,value
2018-04-10T00:01:19.703Z,90.30
2018-04-10T00:04:22.851Z,90.20
2018-04-10T00:07:26.044Z,90.40
2018-04-10T00:10:30.052Z,90.30
2018-04-10T00:13:33.260Z,90.50
2018-04-10T00:16:36.437Z,90.60
2018-04-10T00:19:39.644Z,90.80
2018-04-10T00:22:42.805Z,90.70
2018-04-10T00:25:46.749Z,90.40
2018-04-10T00:28:49.931Z,90.40
2018-04-10T00:31:53.868Z,90.80
2018-04-10T00:34:57.043Z,90.80
2018-04-10T00:38:00.225Z,90.90
2018-04-10T00:41:03.894Z,91.00
2018-04-10T00:44:07.067Z,91.10
2018-04-10T00:47:10.223Z,91.30
2018-04-10T00:50:13.426Z,91.20
2018-04-10T00:53:28.580Z,91.00
2018-04-10T00:56:32.503Z,91.50
2018-04-10T00:59:35.703Z,91.50
2018-04-10T01:02:38.899Z,91.70
2018-04-10T01:05:42.088Z,92.10
2018-04-10T01:08:45.317Z,92.00
2018-04-10T01:11:48.457Z,92.10
2018-04-10T01:14:51.662Z,92.30
2018-04-10T01:17:54.875Z,92.00
2018-04-10T01:20:58.092Z,92.20
2018-04-10T01:24:01.271Z,92.10
2018-04-10T01:27:04.456Z,92.10
2018-04-10T01:30:07.657Z,92.40
2018-04-10T01:33:11.136Z,92.50
2018-04-10T01:36:15.078Z,92.70
2018-04-10T01:39:18.656Z,92.60
2018-04-10T01:42:22.594Z,92.60
2018-04-10T01:45:25.802Z,92.60
2018-04-10T01:48:28.955Z,92.90
2018-04-10T01:51:32.182Z,92.90
2018-04-10T01:54:35.353Z,92.80
2018-04-10T01:57:38.556Z,92.70
2018-04-10T02:00:41.721Z,93.10
2018-04-10T02:03:46.858Z,92.80
2018-04-10T02:06:50.034Z,92.80
2018-04-10T02:10:11.712Z,93.00
2018-04-10T02:13:14.888Z,93.00
2018-04-10T02:16:18.427Z,93.00
2018-04-10T02:19:21.624Z,93.10
2018-04-10T02:22:24.784Z,93.10
2018-04-10T02:25:33.747Z,93.20
2018-04-10T02:28:42.730Z,93.20
2018-04-10T02:31:46.680Z,93.30
2018-04-10T02:34:55.409Z,93.20
2018-04-10T02:37:58.585Z,93.60
2018-04-10T02:41:07.545Z,93.70
2018-04-10T02:44:10.730Z,93.50
2018-04-10T02:47:13.895Z,93.60
2018-04-10T02:50:17.062Z,93.30
2018-04-10T02:53:20.268Z,93.40
2018-04-10T02:56:23.439Z,93.30
2018-04-10T02:59:27.812Z,93.60
2018-04-10T03:02:31.021Z,93.40
2018-04-10T03:05:34.538Z,93.10
2018-04-10T03:08:37.721Z,93.10
2018-04-10T03:11:40.886Z,93.10
2018-04-10T03:14:44.473Z,93.30
2018-04-10T03:17:47.711Z,93.30
2018-04-10T03:20:51.828Z,93.40
2018-04-10T03:23:55.015Z,93.30
2018-04-10T03:26:58.182Z,93.60
2018-04-10T03:30:02.637Z,93.50
2018-04-10T03:33:05.791Z,93.70
2018-04-10T03:36:08.970Z,93.60
2018-04-10T03:39:12.913Z,93.80
2018-04-10T03:42:16.131Z,93.80
2018-04-10T03:45:19.301Z,93.90
2018-04-10T03:48:22.475Z,94.00
2018-04-10T03:51:26.415Z,94.20
2018-04-10T03:54:29.631Z,94.10
2018-04-10T03:57:32.772Z,94.30
2018-04-10T04:00:36.891Z,94.60
2018-04-10T04:03:40.129Z,94.80
2018-04-10T04:06:43.452Z,94.90
2018-04-10T04:09:46.632Z,94.70
2018-04-10T04:12:49.816Z,94.90
2018-04-10T04:15:52.975Z,94.90
2018-04-10T04:19:08.660Z,94.80
2018-04-10T04:22:23.709Z,94.80
2018-04-10T04:25:27.659Z,94.60
2018-04-10T04:28:30.815Z,94.50
2018-04-10T04:31:35.129Z,95.00
2018-04-10T04:34:38.382Z,94.90
2018-04-10T04:37:41.595Z,95.00
2018-04-10T04:40:44.768Z,95.00
2018-04-10T04:43:47.975Z,94.80
2018-04-10T04:46:51.147Z,94.80
2018-04-10T04:49:54.298Z,94.60
2018-04-10T04:52:58.031Z,94.40
2018-04-10T04:56:01.940Z,94.50
2018-04-10T04:59:05.098Z,94.40
2018-04-10T05:02:09.081Z,93.60
2018-04-10T05:05:12.249Z,93.60
2018-04-10T05:08:15.433Z,93.80
2018-04-10T05:11:18.648Z,93.70
2018-04-10T05:14:21.796Z,93.70
2018-04-10T05:17:24.967Z,93.70
2018-04-10T05:20:28.160Z,93.60
2018-04-10T05:23:31.348Z,93.20
2018-04-10T05:26:35.560Z,93.10
2018-04-10T05:29:38.749Z,93.20
2018-04-10T05:32:41.923Z,93.10
2018-04-10T05:35:45.146Z,92.50
2018-04-10T05:38:48.305Z,92.10
2018-04-10T05:41:52.088Z,92.20
2018-04-10T05:44:55.250Z,91.90
2018-04-10T05:47:58.438Z,91.80
2018-04-10T05:51:01.623Z,92.00
2018-04-10T05:54:04.795Z,91.90
2018-04-10T05:57:07.955Z,92.00
2018-04-10T06:00:12.844Z,91.20
2018-04-10T06:03:16.009Z,91.20
2018-04-10T06:06:19.204Z,91.50
2018-04-10T06:09:22.383Z,90.80
2018-04-10T06:12:25.620Z,91.00
2018-04-10T06:15:28.756Z,91.20
2018-04-10T06:18:32.704Z,90.20
2018-04-10T06:21:35.974Z,90.10
2018-04-10T06:24:39.911Z,87.70
2018-04-10T06:27:43.128Z,87.60
2018-04-10T06:30:46.352Z,87.40
2018-04-10T06:33:49.520Z,86.20
2018-04-10T06:36:52.715Z,85.00
2018-04-10T06:39:55.940Z,81.40
2018-04-10T06:42:59.112Z,73.50
2018-04-10T06:46:03.135Z,66.30
2018-04-10T06:49:06.314Z,59.70
2018-04-10T06:52:09.480Z,59.60
2018-04-10T06:55:12.658Z,56.50
2018-04-10T06:58:15.886Z,55.80
2018-04-10T07:01:19.084Z,54.70
2018-04-10T07:04:22.302Z,54.70
2018-04-10T07:07:25.492Z,53.80
2018-04-10T07:10:28.674Z,50.50
2018-04-10T07:13:31.864Z,48.70
2018-04-10T07:16:35.164Z,46.40
2018-04-10T07:19:38.394Z,46.60
2018-04-10T07:22:42.352Z,44.30
2018-04-10T07:25:45.534Z,44.20
2018-04-10T07:28:48.728Z,43.20
2018-04-10T07:31:51.970Z,44.50
2018-04-10T07:34:55.165Z,44.80
2018-04-10T07:37:58.323Z,44.00
2018-04-10T07:41:01.513Z,44.20
2018-04-10T07:44:04.678Z,45.30
2018-04-10T07:47:07.851Z,44.80
2018-04-10T07:50:11.295Z,44.50
2018-04-10T07:53:14.515Z,44.30
2018-04-10T07:56:17.673Z,44.40
2018-04-10T07:59:20.848Z,44.70
2018-04-10T08:02:24.038Z,45.00
2018-04-10T08:05:27.189Z,45.10
2018-04-10T08:08:30.386Z,46.10
2018-04-10T08:11:33.582Z,42.20
2018-04-10T08:14:36.795Z,43.60
2018-04-10T08:17:39.979Z,43.80
2018-04-10T08:20:43.159Z,43.50
2018-04-10T08:23:46.555Z,42.80
2018-04-10T08:26:49.694Z,39.00
2018-04-10T08:29:52.933Z,38.70
2018-04-10T08:32:56.091Z,40.10
2018-04-10T08:35:59.267Z,36.80
2018-04-10T08:39:03.357Z,38.90
2018-04-10T08:42:06.590Z,36.90
2018-04-10T08:45:09.744Z,38.50
2018-04-10T08:48:12.938Z,40.70
2018-04-10T08:51:16.110Z,41.30
2018-04-10T08:54:19.355Z,43.40
2018-04-10T08:57:24.162Z,40.10
2018-04-10T09:00:27.343Z,40.10
2018-04-10T09:03:30.505Z,37.70
2018-04-10T09:06:33.688Z,37.00
2018-04-10T09:09:37.644Z,37.80
2018-04-10T09:12:41.528Z,37.70
2018-04-10T09:15:44.689Z,38.20
2018-04-10T09:18:48.659Z,37.60
2018-04-10T09:21:51.839Z,37.50
2018-04-10T09:24:55.761Z,39.10
2018-04-10T09:27:59.785Z,39.00
2018-04-10T09:31:03.875Z,40.50
2018-04-10T09:34:07.036Z,39.30
2018-04-10T09:37:11.016Z,40.40
2018-04-10T09:40:14.707Z,40.30
2018-04-10T09:43:17.929Z,41.10
2018-04-10T09:46:21.092Z,40.00
2018-04-10T09:49:24.261Z,40.10
2018-04-10T09:52:28.166Z,37.70
2018-04-10T09:55:32.729Z,39.40
2018-04-10T09:58:36.096Z,39.30
2018-04-10T10:01:40.017Z,39.50
2018-04-10T10:04:43.204Z,39.50
2018-04-10T10:07:46.432Z,39.90
2018-04-10T10:10:49.624Z,40.80
2018-04-10T10:13:52.800Z,40.80
2018-04-10T10:16:55.965Z,41.80
2018-04-10T10:19:59.215Z,42.80
2018-04-10T10:23:02.375Z,42.00
2018-04-10T10:26:05.558Z,42.80
2018-04-10T10:29:08.793Z,42.80
2018-04-10T10:32:11.960Z,41.90
2018-04-10T10:35:15.121Z,43.60
2018-04-10T10:38:18.299Z,42.10
2018-04-10T10:41:21.475Z,42.80
2018-04-10T10:44:25.450Z,42.30
2018-04-10T10:47:28.632Z,42.30
2018-04-10T10:50:31.860Z,42.00
2018-04-10T10:53:35.117Z,42.70
2018-04-10T10:56:38.304Z,42.30
2018-04-10T10:59:42.811Z,41.30
2018-04-10T11:02:46.017Z,41.30
2018-04-10T11:05:49.181Z,42.50
2018-04-10T11:08:52.373Z,43.00
2018-04-10T11:11:55.553Z,42.90
2018-04-10T11:14:58.751Z,41.00
2018-04-10T11:18:01.919Z,41.50
2018-04-10T11:21:05.116Z,41.10
2018-04-10T11:24:08.270Z,42.60
2018-04-10T11:27:11.529Z,43.80
2018-04-10T11:30:14.698Z,41.20
2018-04-10T11:33:18.857Z,42.30
2018-04-10T11:36:22.007Z,39.90
2018-04-10T11:39:25.220Z,40.40
2018-04-10T11:42:28.370Z,39.60
2018-04-10T11:45:32.336Z,42.60
2018-04-10T11:48:35.571Z,42.60
2018-04-10T11:51:39.522Z,42.30
2018-04-10T11:54:43.379Z,42.20
2018-04-10T11:57:46.643Z,45.30
2018-04-10T12:00:49.805Z,46.30
2018-04-10T12:03:53.779Z,47.60
2018-04-10T12:06:56.982Z,47.50
2018-04-10T12:10:00.149Z,46.70
2018-04-10T12:13:03.298Z,47.20
2018-04-10T12:16:07.300Z,48.70
2018-04-10T12:19:11.225Z,48.50
2018-04-10T12:22:15.183Z,49.00
2018-04-10T12:25:18.369Z,49.00
2018-04-10T12:28:21.558Z,48.00
2018-04-10T12:31:24.729Z,48.50
2018-04-10T12:34:28.773Z,48.80
2018-04-10T12:37:31.967Z,49.30
2018-04-10T12:40:35.217Z,49.30
2018-04-10T12:43:38.406Z,49.00
2018-04-10T12:46:41.613Z,49.40
2018-04-10T12:49:44.802Z,49.10
2018-04-10T12:52:47.988Z,48.30
2018-04-10T12:55:51.911Z,49.20
2018-04-10T12:58:55.132Z,49.70
2018-04-10T13:01:58.285Z,49.00
2018-04-10T13:05:02.723Z,48.80
2018-04-10T13:08:05.893Z,48.80
2018-04-10T13:11:09.110Z,49.00
2018-04-10T13:14:12.290Z,48.80
2018-04-10T13:17:15.506Z,49.10
2018-04-10T13:20:18.672Z,49.10
2018-04-10T13:23:21.850Z,49.00
2018-04-10T13:26:25.080Z,48.50
2018-04-10T13:29:29.124Z,47.90
2018-04-10T13:32:32.325Z,47.70
2018-04-10T13:35:35.822Z,47.30
2018-04-10T13:38:38.969Z,48.00
2018-04-10T13:41:42.916Z,49.70
2018-04-10T13:44:46.118Z,49.60
2018-04-10T13:47:49.393Z,50.20
2018-04-10T13:50:52.575Z,49.60
2018-04-10T13:53:55.811Z,49.30
2018-04-10T13:56:58.963Z,49.50
2018-04-10T14:00:02.175Z,48.70
2018-04-10T14:03:05.323Z,49.10
2018-04-10T14:06:08.513Z,49.00
2018-04-10T14:09:11.687Z,48.10
2018-04-10T14:12:14.888Z,48.60
2018-04-10T14:15:18.122Z,49.00
2018-04-10T14:18:21.318Z,49.50
2018-04-10T14:21:24.503Z,50.20
2018-04-10T14:24:27.706Z,50.30
2018-04-10T14:27:30.896Z,50.90
2018-04-10T14:30:34.846Z,51.20
2018-04-10T14:33:38.103Z,51.20
2018-04-10T14:36:42.072Z,51.30
2018-04-10T14:39:45.255Z,51.20
2018-04-10T14:42:49.282Z,52.60
2018-04-10T14:45:52.457Z,52.50
2018-04-10T14:48:55.609Z,52.40
2018-04-10T14:51:59.551Z,51.80
2018-04-10T14:55:02.729Z,51.70
2018-04-10T14:58:05.962Z,50.60
2018-04-10T15:01:09.150Z,52.00
2018-04-10T15:04:12.289Z,52.90
2018-04-10T15:07:16.232Z,45.70
2018-04-10T15:10:19.400Z,45.60
2018-04-10T15:13:23.469Z,45.70
2018-04-10T15:16:26.665Z,47.00
2018-04-10T15:19:30.672Z,45.40
2018-04-10T15:22:33.827Z,45.30
2018-04-10T15:25:37.054Z,45.30
2018-04-10T15:28:40.227Z,44.40
2018-04-10T15:31:45.093Z,43.80
2018-04-10T15:34:48.257Z,44.40
2018-04-10T15:37:51.470Z,43.80
2018-04-10T15:40:54.666Z,44.20
2018-04-10T15:43:57.865Z,44.50
2018-04-10T15:47:01.639Z,45.30
2018-04-10T15:50:05.573Z,46.70
2018-04-10T15:53:08.725Z,46.70
2018-04-10T15:56:12.696Z,46.80
2018-04-10T15:59:15.891Z,46.80
2018-04-10T16:02:19.085Z,47.10
2018-04-10T16:05:22.243Z,47.30
2018-04-10T16:08:25.407Z,47.80
2018-04-10T16:11:29.340Z,46.80
2018-04-10T16:14:33.122Z,47.30
2018-04-10T16:17:36.396Z,46.90
2018-04-10T16:20:39.574Z,45.50
2018-04-10T16:23:42.765Z,46.30
2018-04-10T16:26:45.924Z,46.00
2018-04-10T16:29:49.882Z,44.50
2018-04-10T16:32:53.077Z,44.40
2018-04-10T16:35:56.239Z,44.50
2018-04-10T16:38:59.414Z,44.90
2018-04-10T16:42:02.605Z,47.00
2018-04-10T16:45:06.574Z,49.00
2018-04-10T16:48:10.531Z,48.70
2018-04-10T16:51:14.546Z,48.40
2018-04-10T16:54:17.694Z,48.40
2018-04-10T16:57:21.083Z,47.40
2018-04-10T17:00:24.319Z,43.10
2018-04-10T17:03:27.582Z,41.60
2018-04-10T17:06:30.809Z,41.00
2018-04-10T17:09:34.747Z,41.10
2018-04-10T17:12:38.212Z,40.90
2018-04-10T17:15:42.800Z,40.20
2018-04-10T17:18:46.103Z,41.10
2018-04-10T17:21:50.566Z,40.60
2018-04-10T17:25:01.772Z,40.80
2018-04-10T17:28:11.477Z,40.80
2018-04-10T17:31:19.952Z,41.10
2018-04-10T17:34:48.146Z,41.10
2018-04-10T17:37:53.139Z,42.00
2018-04-10T17:41:06.988Z,43.10
2018-04-10T17:44:10.944Z,43.90
2018-04-10T17:47:14.565Z,43.80
2018-04-10T17:50:19.152Z,45.00
2018-04-10T17:53:22.498Z,44.70
2018-04-10T17:56:25.714Z,45.00
2018-04-10T17:59:29.073Z,45.60
2018-04-10T18:02:32.363Z,45.80
2018-04-10T18:05:35.694Z,46.30
2018-04-10T18:08:38.979Z,46.60
2018-04-10T18:11:43.058Z,46.60
2018-04-10T18:14:46.885Z,46.30
2018-04-10T18:17:50.199Z,46.10
2018-04-10T18:20:54.160Z,45.20
2018-04-10T18:23:57.526Z,46.00
2018-04-10T18:27:01.654Z,46.00
2018-04-10T18:30:04.962Z,45.80
2018-04-10T18:36:17.699Z,45.90
2018-04-10T18:39:20.899Z,46.60
2018-04-10T18:42:24.098Z,46.90
2018-04-10T18:45:28.219Z,47.40
2018-04-10T18:48:31.479Z,47.70
2018-04-10T18:51:34.733Z,48.70
2018-04-10T18:54:39.936Z,49.60
2018-04-10T18:57:43.111Z,49.60
2018-04-10T19:00:47.257Z,50.70
2018-04-10T19:03:50.471Z,50.50
2018-04-10T19:06:54.366Z,51.80
2018-04-10T19:09:57.548Z,51.80
2018-04-10T19:13:02.280Z,52.90
2018-04-10T19:16:05.534Z,52.80
2018-04-10T19:19:08.773Z,52.50
2018-04-10T19:22:11.993Z,53.10
2018-04-10T19:25:15.239Z,52.80
2018-04-10T19:28:18.444Z,52.90
2018-04-10T19:31:21.683Z,53.00
2018-04-10T19:34:24.910Z,53.60
2018-04-10T19:37:28.925Z,53.30
2018-04-10T19:40:32.904Z,53.20
2018-04-10T19:43:36.196Z,53.10
2018-04-10T19:46:39.579Z,53.10
2018-04-10T19:49:42.824Z,53.00
2018-04-10T19:52:45.986Z,53.00
2018-04-10T19:55:49.164Z,52.80
2018-04-10T19:58:52.326Z,53.80
2018-04-10T20:01:55.514Z,53.60
2018-04-10T20:04:59.456Z,53.80
2018-04-10T20:08:03.390Z,54.50
2018-04-10T20:11:06.541Z,54.50
2018-04-10T20:14:10.009Z,54.50
2018-04-10T20:17:13.186Z,54.60
2018-04-10T20:20:16.375Z,54.80
2018-04-10T20:23:20.679Z,54.90
2018-04-10T20:26:24.822Z,54.90
2018-04-10T20:29:28.142Z,55.00
2018-04-10T20:32:31.458Z,55.30
2018-04-10T20:35:34.835Z,55.90
2018-04-10T20:38:38.240Z,56.10
2018-04-10T20:41:41.508Z,57.50
2018-04-10T20:44:44.841Z,58.20
2018-04-10T20:47:48.869Z,59.60
2018-04-10T20:50:52.211Z,59.40
2018-04-10T20:53:55.509Z,59.60
2018-04-10T20:56:58.771Z,61.30
2018-04-10T21:00:02.045Z,60.60
2018-04-10T21:03:05.365Z,60.80
2018-04-10T21:09:18.164Z,62.70
2018-04-10T21:12:22.218Z,64.20
2018-04-10T21:15:25.469Z,63.60
2018-04-10T21:18:28.782Z,64.30
2018-04-10T21:21:32.139Z,64.70
2018-04-10T21:24:35.485Z,65.60
2018-04-10T21:27:38.821Z,66.40
2018-04-10T21:30:42.058Z,66.80
2018-04-10T21:33:45.321Z,67.50
2018-04-10T21:36:48.599Z,68.40
2018-04-10T21:39:51.926Z,68.50
2018-04-10T21:43:02.599Z,70.10
2018-04-10T21:46:05.993Z,69.30
2018-04-10T21:49:09.232Z,70.00
2018-04-10T21:52:12.503Z,70.60
2018-04-10T21:55:16.567Z,71.50
2018-04-10T21:58:19.781Z,71.20
2018-04-10T22:01:23.044Z,71.50
2018-04-10T22:04:26.268Z,71.10
2018-04-10T22:07:30.247Z,71.30
2018-04-10T22:10:34.398Z,73.50
2018-04-10T22:13:37.566Z,74.10
2018-04-10T22:16:40.729Z,71.80
2018-04-10T22:19:43.934Z,71.30
2018-04-10T22:22:47.895Z,71.50
2018-04-10T22:25:51.036Z,71.40
2018-04-10T22:28:54.965Z,73.10
2018-04-10T22:31:58.163Z,73.00
2018-04-10T22:35:02.069Z,73.40
2018-04-10T22:38:06.481Z,73.50
2018-04-10T22:41:09.656Z,73.50
2018-04-10T22:44:13.565Z,74.30
2018-04-10T22:47:17.556Z,75.50
2018-04-10T22:50:21.485Z,76.30
2018-04-10T22:53:25.419Z,75.20
2018-04-10T22:56:28.583Z,75.20
2018-04-10T22:59:31.757Z,75.90
2018-04-10T23:02:34.924Z,75.80
2018-04-10T23:05:38.252Z,74.30
2018-04-10T23:08:41.423Z,74.20
2018-04-10T23:11:44.603Z,71.90
2018-04-10T23:14:48.517Z,72.10
2018-04-10T23:17:51.711Z,72.10
2018-04-10T23:20:54.876Z,70.40
2018-04-10T23:23:58.815Z,70.00
2018-04-10T23:27:01.961Z,69.70
2018-04-10T23:30:05.158Z,71.80
2018-04-10T23:33:08.323Z,72.80
2018-04-10T23:36:11.500Z,73.60
2018-04-10T23:39:14.699Z,74.70
2018-04-10T23:42:17.868Z,75.50
2018-04-10T23:45:21.803Z,77.20
2018-04-10T23:48:25.741Z,81.70
2018-04-10T23:51:28.939Z,81.70
2018-04-10T23:54:32.080Z,83.60
2018-04-10T23:57:35.355Z,85.00
